sensor_id;sensor_type;location;lat;lon;timestamp;P1;durP1;ratioP1;P2;durP2;ratioP2
31728;SDS011;18309;43.658;1.312;2024-02-14T00:00:06;36.05;;;16.52;;
31728;SDS011;18309;43.658;1.312;2024-02-14T00:02:35;33.28;;;16.85;;
31728;SDS011;18309;43.658;1.312;2024-02-14T00:05:02;36.03;;;16.27;;
31728;SDS011;18309;43.658;1.312;2024-02-14T00:07:28;35.00;;;17.77;;
31728;SDS011;18309;43.658;1.312;2024-02-14T00:09:54;39.47;;;17.60;;
31728;SDS011;18309;43.658;1.312;2024-02-14T00:12:19;46.08;;;18.98;;
31728;SDS011;18309;43.658;1.312;2024-02-14T00:14:45;36.42;;;17.58;;
31728;SDS011;18309;43.658;1.312;2024-02-14T00:17:11;34.90;;;17.45;;
31728;SDS011;18309;43.658;1.312;2024-02-14T00:19:37;35.20;;;16.60;;
31728;SDS011;18309;43.658;1.312;2024-02-14T00:22:03;34.30;;;17.27;;
31728;SDS011;18309;43.658;1.312;2024-02-14T00:24:29;33.47;;;16.63;;
31728;SDS011;18309;43.658;1.312;2024-02-14T00:26:54;38.25;;;17.17;;
31728;SDS011;18309;43.658;1.312;2024-02-14T00:29:21;35.50;;;17.77;;
31728;SDS011;18309;43.658;1.312;2024-02-14T00:31:48;35.13;;;17.73;;
31728;SDS011;18309;43.658;1.312;2024-02-14T00:34:14;35.88;;;18.08;;
31728;SDS011;18309;43.658;1.312;2024-02-14T00:36:40;34.83;;;17.90;;
31728;SDS011;18309;43.658;1.312;2024-02-14T00:39:06;37.05;;;17.63;;
31728;SDS011;18309;43.658;1.312;2024-02-14T00:41:34;35.83;;;18.05;;
31728;SDS011;18309;43.658;1.312;2024-02-14T00:44:01;32.30;;;17.38;;
31728;SDS011;18309;43.658;1.312;2024-02-14T00:46:28;29.73;;;16.20;;
31728;SDS011;18309;43.658;1.312;2024-02-14T00:48:54;36.33;;;17.00;;
31728;SDS011;18309;43.658;1.312;2024-02-14T00:51:20;34.92;;;18.02;;
31728;SDS011;18309;43.658;1.312;2024-02-14T00:53:46;33.92;;;17.90;;
31728;SDS011;18309;43.658;1.312;2024-02-14T00:56:12;34.00;;;17.95;;
31728;SDS011;18309;43.658;1.312;2024-02-14T00:58:37;37.83;;;18.77;;
31728;SDS011;18309;43.658;1.312;2024-02-14T01:01:04;34.10;;;18.50;;
31728;SDS011;18309;43.658;1.312;2024-02-14T01:03:30;34.53;;;17.65;;
31728;SDS011;18309;43.658;1.312;2024-02-14T01:05:56;37.80;;;18.45;;
31728;SDS011;18309;43.658;1.312;2024-02-14T01:08:22;38.67;;;18.80;;
31728;SDS011;18309;43.658;1.312;2024-02-14T01:10:47;34.65;;;18.85;;
31728;SDS011;18309;43.658;1.312;2024-02-14T01:13:15;36.83;;;18.60;;
31728;SDS011;18309;43.658;1.312;2024-02-14T01:15:41;35.63;;;18.05;;
31728;SDS011;18309;43.658;1.312;2024-02-14T01:18:06;36.25;;;18.90;;
31728;SDS011;18309;43.658;1.312;2024-02-14T01:20:32;37.83;;;19.42;;
31728;SDS011;18309;43.658;1.312;2024-02-14T01:22:58;38.22;;;18.10;;
31728;SDS011;18309;43.658;1.312;2024-02-14T01:25:24;38.03;;;19.85;;
31728;SDS011;18309;43.658;1.312;2024-02-14T01:27:51;42.42;;;19.88;;
31728;SDS011;18309;43.658;1.312;2024-02-14T01:30:17;39.63;;;20.67;;
31728;SDS011;18309;43.658;1.312;2024-02-14T01:32:44;40.88;;;19.48;;
31728;SDS011;18309;43.658;1.312;2024-02-14T01:35:09;43.63;;;22.15;;
31728;SDS011;18309;43.658;1.312;2024-02-14T01:37:35;50.22;;;21.52;;
31728;SDS011;18309;43.658;1.312;2024-02-14T01:40:01;64.35;;;23.33;;
31728;SDS011;18309;43.658;1.312;2024-02-14T01:42:27;53.33;;;22.70;;
31728;SDS011;18309;43.658;1.312;2024-02-14T01:44:53;35.28;;;16.58;;
31728;SDS011;18309;43.658;1.312;2024-02-14T01:47:21;34.55;;;16.52;;
31728;SDS011;18309;43.658;1.312;2024-02-14T01:49:47;33.67;;;15.75;;
31728;SDS011;18309;43.658;1.312;2024-02-14T01:52:13;31.23;;;14.27;;
31728;SDS011;18309;43.658;1.312;2024-02-14T01:54:40;31.73;;;14.35;;
31728;SDS011;18309;43.658;1.312;2024-02-14T01:57:07;33.35;;;14.75;;
31728;SDS011;18309;43.658;1.312;2024-02-14T01:59:35;34.60;;;14.90;;
31728;SDS011;18309;43.658;1.312;2024-02-14T02:02:01;30.85;;;14.60;;
31728;SDS011;18309;43.658;1.312;2024-02-14T02:04:27;30.77;;;14.32;;
31728;SDS011;18309;43.658;1.312;2024-02-14T02:06:52;31.10;;;14.00;;
31728;SDS011;18309;43.658;1.312;2024-02-14T02:09:21;27.80;;;13.98;;
31728;SDS011;18309;43.658;1.312;2024-02-14T02:11:48;27.90;;;13.75;;
31728;SDS011;18309;43.658;1.312;2024-02-14T02:14:15;25.58;;;12.95;;
31728;SDS011;18309;43.658;1.312;2024-02-14T02:16:41;25.38;;;12.65;;
31728;SDS011;18309;43.658;1.312;2024-02-14T02:19:08;27.52;;;12.60;;
31728;SDS011;18309;43.658;1.312;2024-02-14T02:21:37;25.58;;;13.25;;
31728;SDS011;18309;43.658;1.312;2024-02-14T02:24:03;24.38;;;12.10;;
31728;SDS011;18309;43.658;1.312;2024-02-14T02:26:29;24.98;;;11.55;;
31728;SDS011;18309;43.658;1.312;2024-02-14T02:28:55;23.42;;;11.63;;
31728;SDS011;18309;43.658;1.312;2024-02-14T02:31:21;25.25;;;11.25;;
31728;SDS011;18309;43.658;1.312;2024-02-14T02:33:47;21.23;;;10.80;;
31728;SDS011;18309;43.658;1.312;2024-02-14T02:36:14;22.10;;;11.07;;
31728;SDS011;18309;43.658;1.312;2024-02-14T02:38:41;21.58;;;10.25;;
31728;SDS011;18309;43.658;1.312;2024-02-14T02:41:07;20.50;;;10.52;;
31728;SDS011;18309;43.658;1.312;2024-02-14T02:43:33;21.52;;;11.70;;
31728;SDS011;18309;43.658;1.312;2024-02-14T02:45:59;22.63;;;11.32;;
31728;SDS011;18309;43.658;1.312;2024-02-14T02:48:25;21.67;;;10.68;;
31728;SDS011;18309;43.658;1.312;2024-02-14T02:50:51;23.30;;;11.70;;
31728;SDS011;18309;43.658;1.312;2024-02-14T02:53:18;27.45;;;12.52;;
31728;SDS011;18309;43.658;1.312;2024-02-14T02:55:44;25.23;;;11.68;;
31728;SDS011;18309;43.658;1.312;2024-02-14T02:58:10;23.42;;;11.20;;
31728;SDS011;18309;43.658;1.312;2024-02-14T03:00:36;21.73;;;11.27;;
31728;SDS011;18309;43.658;1.312;2024-02-14T03:03:01;20.63;;;10.85;;
31728;SDS011;18309;43.658;1.312;2024-02-14T03:05:29;22.38;;;10.65;;
31728;SDS011;18309;43.658;1.312;2024-02-14T03:07:58;18.58;;;9.80;;
31728;SDS011;18309;43.658;1.312;2024-02-14T03:10:24;19.65;;;9.93;;
31728;SDS011;18309;43.658;1.312;2024-02-14T03:12:51;18.13;;;9.95;;
31728;SDS011;18309;43.658;1.312;2024-02-14T03:15:17;19.55;;;10.48;;
31728;SDS011;18309;43.658;1.312;2024-02-14T03:17:43;18.65;;;10.02;;
31728;SDS011;18309;43.658;1.312;2024-02-14T03:20:12;22.70;;;11.90;;
31728;SDS011;18309;43.658;1.312;2024-02-14T03:22:42;29.02;;;11.77;;
31728;SDS011;18309;43.658;1.312;2024-02-14T03:25:21;19.58;;;10.25;;
31728;SDS011;18309;43.658;1.312;2024-02-14T03:27:47;22.20;;;10.95;;
31728;SDS011;18309;43.658;1.312;2024-02-14T03:30:16;18.90;;;10.90;;
31728;SDS011;18309;43.658;1.312;2024-02-14T03:32:45;23.90;;;11.15;;
31728;SDS011;18309;43.658;1.312;2024-02-14T03:35:11;21.38;;;10.38;;
31728;SDS011;18309;43.658;1.312;2024-02-14T03:37:41;20.67;;;10.90;;
31728;SDS011;18309;43.658;1.312;2024-02-14T03:40:09;22.25;;;12.20;;
31728;SDS011;18309;43.658;1.312;2024-02-14T03:42:35;20.02;;;11.00;;
31728;SDS011;18309;43.658;1.312;2024-02-14T03:45:00;22.08;;;11.13;;
31728;SDS011;18309;43.658;1.312;2024-02-14T03:47:30;21.47;;;10.90;;
31728;SDS011;18309;43.658;1.312;2024-02-14T03:49:59;25.88;;;11.25;;
31728;SDS011;18309;43.658;1.312;2024-02-14T03:52:26;23.98;;;11.48;;
31728;SDS011;18309;43.658;1.312;2024-02-14T03:54:52;18.95;;;10.75;;
31728;SDS011;18309;43.658;1.312;2024-02-14T03:57:18;23.50;;;9.82;;
31728;SDS011;18309;43.658;1.312;2024-02-14T03:59:44;20.23;;;9.68;;
31728;SDS011;18309;43.658;1.312;2024-02-14T04:02:10;18.15;;;9.57;;
31728;SDS011;18309;43.658;1.312;2024-02-14T04:04:36;19.60;;;10.23;;
31728;SDS011;18309;43.658;1.312;2024-02-14T04:07:03;19.23;;;9.52;;
31728;SDS011;18309;43.658;1.312;2024-02-14T04:09:29;19.15;;;10.15;;
31728;SDS011;18309;43.658;1.312;2024-02-14T04:11:55;18.92;;;9.23;;
31728;SDS011;18309;43.658;1.312;2024-02-14T04:14:20;20.73;;;9.40;;
31728;SDS011;18309;43.658;1.312;2024-02-14T04:16:46;16.40;;;8.80;;
31728;SDS011;18309;43.658;1.312;2024-02-14T04:19:12;17.20;;;8.45;;
31728;SDS011;18309;43.658;1.312;2024-02-14T04:21:38;18.30;;;8.70;;
31728;SDS011;18309;43.658;1.312;2024-02-14T04:24:04;15.07;;;9.07;;
31728;SDS011;18309;43.658;1.312;2024-02-14T04:26:29;15.88;;;7.57;;
31728;SDS011;18309;43.658;1.312;2024-02-14T04:28:55;20.33;;;9.15;;
31728;SDS011;18309;43.658;1.312;2024-02-14T04:31:22;22.05;;;9.52;;
31728;SDS011;18309;43.658;1.312;2024-02-14T04:33:47;17.58;;;7.90;;
31728;SDS011;18309;43.658;1.312;2024-02-14T04:36:17;17.13;;;8.15;;
31728;SDS011;18309;43.658;1.312;2024-02-14T04:38:44;16.88;;;8.43;;
31728;SDS011;18309;43.658;1.312;2024-02-14T04:41:10;20.35;;;7.75;;
31728;SDS011;18309;43.658;1.312;2024-02-14T04:43:35;17.83;;;7.85;;
31728;SDS011;18309;43.658;1.312;2024-02-14T04:46:01;14.40;;;7.50;;
31728;SDS011;18309;43.658;1.312;2024-02-14T04:48:27;18.20;;;8.43;;
31728;SDS011;18309;43.658;1.312;2024-02-14T04:50:52;16.65;;;8.00;;
31728;SDS011;18309;43.658;1.312;2024-02-14T04:53:19;14.10;;;7.30;;
31728;SDS011;18309;43.658;1.312;2024-02-14T04:55:45;13.45;;;7.30;;
31728;SDS011;18309;43.658;1.312;2024-02-14T04:58:10;13.55;;;7.68;;
31728;SDS011;18309;43.658;1.312;2024-02-14T05:00:36;15.73;;;8.07;;
31728;SDS011;18309;43.658;1.312;2024-02-14T05:03:03;13.20;;;7.43;;
31728;SDS011;18309;43.658;1.312;2024-02-14T05:05:30;16.17;;;8.27;;
31728;SDS011;18309;43.658;1.312;2024-02-14T05:07:55;16.10;;;7.35;;
31728;SDS011;18309;43.658;1.312;2024-02-14T05:10:21;17.83;;;7.57;;
31728;SDS011;18309;43.658;1.312;2024-02-14T05:12:47;15.70;;;7.47;;
31728;SDS011;18309;43.658;1.312;2024-02-14T05:15:12;15.65;;;8.02;;
31728;SDS011;18309;43.658;1.312;2024-02-14T05:17:41;13.48;;;7.18;;
31728;SDS011;18309;43.658;1.312;2024-02-14T05:20:09;12.25;;;6.97;;
31728;SDS011;18309;43.658;1.312;2024-02-14T05:22:35;19.17;;;8.07;;
31728;SDS011;18309;43.658;1.312;2024-02-14T05:25:03;14.07;;;7.28;;
31728;SDS011;18309;43.658;1.312;2024-02-14T05:27:29;14.23;;;7.53;;
31728;SDS011;18309;43.658;1.312;2024-02-14T05:29:55;16.73;;;7.05;;
31728;SDS011;18309;43.658;1.312;2024-02-14T05:32:22;15.40;;;7.45;;
31728;SDS011;18309;43.658;1.312;2024-02-14T05:34:48;13.95;;;7.93;;
31728;SDS011;18309;43.658;1.312;2024-02-14T05:37:15;12.27;;;6.75;;
31728;SDS011;18309;43.658;1.312;2024-02-14T05:39:41;12.48;;;6.97;;
31728;SDS011;18309;43.658;1.312;2024-02-14T05:42:07;15.60;;;6.95;;
31728;SDS011;18309;43.658;1.312;2024-02-14T05:44:33;12.52;;;6.63;;
31728;SDS011;18309;43.658;1.312;2024-02-14T05:46:59;21.90;;;8.43;;
31728;SDS011;18309;43.658;1.312;2024-02-14T05:49:25;17.08;;;7.97;;
31728;SDS011;18309;43.658;1.312;2024-02-14T05:51:51;14.57;;;7.53;;
31728;SDS011;18309;43.658;1.312;2024-02-14T05:54:18;17.38;;;8.32;;
31728;SDS011;18309;43.658;1.312;2024-02-14T05:56:44;18.50;;;8.48;;
31728;SDS011;18309;43.658;1.312;2024-02-14T05:59:11;15.25;;;8.82;;
31728;SDS011;18309;43.658;1.312;2024-02-14T06:01:36;20.60;;;9.23;;
31728;SDS011;18309;43.658;1.312;2024-02-14T06:04:02;21.45;;;10.18;;
31728;SDS011;18309;43.658;1.312;2024-02-14T06:06:28;20.67;;;9.38;;
31728;SDS011;18309;43.658;1.312;2024-02-14T06:08:54;20.02;;;8.40;;
31728;SDS011;18309;43.658;1.312;2024-02-14T06:11:20;16.13;;;8.45;;
31728;SDS011;18309;43.658;1.312;2024-02-14T06:13:49;14.40;;;8.10;;
31728;SDS011;18309;43.658;1.312;2024-02-14T06:16:14;19.02;;;8.57;;
31728;SDS011;18309;43.658;1.312;2024-02-14T06:18:40;17.95;;;8.27;;
31728;SDS011;18309;43.658;1.312;2024-02-14T06:21:06;14.95;;;8.43;;
31728;SDS011;18309;43.658;1.312;2024-02-14T06:23:32;22.05;;;8.73;;
31728;SDS011;18309;43.658;1.312;2024-02-14T06:25:58;23.77;;;9.00;;
31728;SDS011;18309;43.658;1.312;2024-02-14T06:28:23;16.83;;;8.68;;
31728;SDS011;18309;43.658;1.312;2024-02-14T06:30:49;22.60;;;9.23;;
31728;SDS011;18309;43.658;1.312;2024-02-14T06:33:15;17.15;;;9.00;;
31728;SDS011;18309;43.658;1.312;2024-02-14T06:35:41;19.90;;;8.25;;
31728;SDS011;18309;43.658;1.312;2024-02-14T06:38:06;21.20;;;8.57;;
31728;SDS011;18309;43.658;1.312;2024-02-14T06:40:32;22.15;;;8.27;;
31728;SDS011;18309;43.658;1.312;2024-02-14T06:42:58;25.95;;;8.77;;
31728;SDS011;18309;43.658;1.312;2024-02-14T06:45:25;17.23;;;8.70;;
31728;SDS011;18309;43.658;1.312;2024-02-14T06:47:52;24.63;;;8.88;;
31728;SDS011;18309;43.658;1.312;2024-02-14T06:50:19;18.38;;;10.13;;
31728;SDS011;18309;43.658;1.312;2024-02-14T06:52:44;17.10;;;9.80;;
31728;SDS011;18309;43.658;1.312;2024-02-14T06:55:10;24.10;;;10.52;;
31728;SDS011;18309;43.658;1.312;2024-02-14T06:57:36;16.73;;;9.60;;
31728;SDS011;18309;43.658;1.312;2024-02-14T07:00:02;22.13;;;9.90;;
31728;SDS011;18309;43.658;1.312;2024-02-14T07:02:30;24.40;;;10.55;;
31728;SDS011;18309;43.658;1.312;2024-02-14T07:04:56;21.20;;;10.45;;
31728;SDS011;18309;43.658;1.312;2024-02-14T07:07:22;17.83;;;9.57;;
31728;SDS011;18309;43.658;1.312;2024-02-14T07:09:48;24.52;;;11.02;;
31728;SDS011;18309;43.658;1.312;2024-02-14T07:12:13;23.70;;;11.40;;
31728;SDS011;18309;43.658;1.312;2024-02-14T07:14:39;21.80;;;11.05;;
31728;SDS011;18309;43.658;1.312;2024-02-14T07:17:05;27.35;;;11.13;;
31728;SDS011;18309;43.658;1.312;2024-02-14T07:19:31;21.10;;;11.20;;
31728;SDS011;18309;43.658;1.312;2024-02-14T07:21:57;28.95;;;10.93;;
31728;SDS011;18309;43.658;1.312;2024-02-14T07:24:22;20.15;;;10.27;;
31728;SDS011;18309;43.658;1.312;2024-02-14T07:26:48;22.45;;;10.75;;
31728;SDS011;18309;43.658;1.312;2024-02-14T07:29:14;27.25;;;11.90;;
31728;SDS011;18309;43.658;1.312;2024-02-14T07:31:39;34.33;;;12.68;;
31728;SDS011;18309;43.658;1.312;2024-02-14T07:34:06;28.50;;;12.43;;
31728;SDS011;18309;43.658;1.312;2024-02-14T07:36:32;27.23;;;12.77;;
31728;SDS011;18309;43.658;1.312;2024-02-14T07:38:58;22.55;;;12.40;;
31728;SDS011;18309;43.658;1.312;2024-02-14T07:41:23;21.48;;;12.00;;
31728;SDS011;18309;43.658;1.312;2024-02-14T07:43:49;26.38;;;10.25;;
31728;SDS011;18309;43.658;1.312;2024-02-14T07:46:18;23.80;;;11.68;;
31728;SDS011;18309;43.658;1.312;2024-02-14T07:48:45;21.73;;;12.27;;
31728;SDS011;18309;43.658;1.312;2024-02-14T07:51:11;19.52;;;10.50;;
31728;SDS011;18309;43.658;1.312;2024-02-14T07:53:37;25.98;;;10.55;;
31728;SDS011;18309;43.658;1.312;2024-02-14T07:56:03;24.75;;;10.82;;
31728;SDS011;18309;43.658;1.312;2024-02-14T07:58:29;18.98;;;10.70;;
31728;SDS011;18309;43.658;1.312;2024-02-14T08:00:54;24.33;;;13.05;;
31728;SDS011;18309;43.658;1.312;2024-02-14T08:03:20;25.33;;;13.38;;
31728;SDS011;18309;43.658;1.312;2024-02-14T08:05:46;27.92;;;14.00;;
31728;SDS011;18309;43.658;1.312;2024-02-14T08:08:11;24.45;;;12.85;;
31728;SDS011;18309;43.658;1.312;2024-02-14T08:10:37;27.10;;;12.57;;
31728;SDS011;18309;43.658;1.312;2024-02-14T08:13:03;24.90;;;12.63;;
31728;SDS011;18309;43.658;1.312;2024-02-14T08:15:29;25.80;;;13.48;;
31728;SDS011;18309;43.658;1.312;2024-02-14T08:17:55;31.02;;;13.93;;
31728;SDS011;18309;43.658;1.312;2024-02-14T08:20:21;27.83;;;11.18;;
31728;SDS011;18309;43.658;1.312;2024-02-14T08:22:48;25.75;;;11.73;;
31728;SDS011;18309;43.658;1.312;2024-02-14T08:25:14;18.90;;;10.95;;
31728;SDS011;18309;43.658;1.312;2024-02-14T08:27:40;24.00;;;10.20;;
31728;SDS011;18309;43.658;1.312;2024-02-14T08:30:06;18.38;;;9.60;;
31728;SDS011;18309;43.658;1.312;2024-02-14T08:32:34;21.38;;;9.77;;
31728;SDS011;18309;43.658;1.312;2024-02-14T08:34:59;18.63;;;9.38;;
31728;SDS011;18309;43.658;1.312;2024-02-14T08:37:26;18.15;;;9.38;;
31728;SDS011;18309;43.658;1.312;2024-02-14T08:39:52;26.98;;;9.95;;
31728;SDS011;18309;43.658;1.312;2024-02-14T08:42:18;23.27;;;8.65;;
31728;SDS011;18309;43.658;1.312;2024-02-14T08:44:44;22.45;;;8.27;;
31728;SDS011;18309;43.658;1.312;2024-02-14T08:47:09;16.70;;;8.05;;
31728;SDS011;18309;43.658;1.312;2024-02-14T08:49:35;25.27;;;8.70;;
31728;SDS011;18309;43.658;1.312;2024-02-14T08:52:01;18.02;;;8.35;;
31728;SDS011;18309;43.658;1.312;2024-02-14T08:54:27;15.77;;;8.07;;
31728;SDS011;18309;43.658;1.312;2024-02-14T08:56:54;12.95;;;6.43;;
31728;SDS011;18309;43.658;1.312;2024-02-14T08:59:21;17.88;;;6.80;;
31728;SDS011;18309;43.658;1.312;2024-02-14T09:01:46;14.30;;;7.57;;
31728;SDS011;18309;43.658;1.312;2024-02-14T09:04:13;16.50;;;7.25;;
31728;SDS011;18309;43.658;1.312;2024-02-14T09:06:39;13.82;;;7.18;;
31728;SDS011;18309;43.658;1.312;2024-02-14T09:09:06;22.92;;;7.10;;
31728;SDS011;18309;43.658;1.312;2024-02-14T09:11:35;22.10;;;8.40;;
31728;SDS011;18309;43.658;1.312;2024-02-14T09:14:01;17.58;;;7.53;;
31728;SDS011;18309;43.658;1.312;2024-02-14T09:16:31;13.40;;;7.22;;
31728;SDS011;18309;43.658;1.312;2024-02-14T09:19:00;17.63;;;7.50;;
31728;SDS011;18309;43.658;1.312;2024-02-14T09:21:26;13.80;;;6.35;;
31728;SDS011;18309;43.658;1.312;2024-02-14T09:23:55;16.52;;;6.03;;
31728;SDS011;18309;43.658;1.312;2024-02-14T09:26:21;13.32;;;6.32;;
31728;SDS011;18309;43.658;1.312;2024-02-14T09:28:47;26.83;;;6.40;;
31728;SDS011;18309;43.658;1.312;2024-02-14T09:31:17;14.80;;;6.50;;
31728;SDS011;18309;43.658;1.312;2024-02-14T09:33:46;12.60;;;7.18;;
31728;SDS011;18309;43.658;1.312;2024-02-14T09:36:13;21.85;;;7.35;;
31728;SDS011;18309;43.658;1.312;2024-02-14T09:38:42;16.70;;;6.80;;
31728;SDS011;18309;43.658;1.312;2024-02-14T09:44:02;17.48;;;6.88;;
31728;SDS011;18309;43.658;1.312;2024-02-14T09:46:28;14.93;;;6.57;;
31728;SDS011;18309;43.658;1.312;2024-02-14T09:48:58;11.93;;;6.28;;
31728;SDS011;18309;43.658;1.312;2024-02-14T09:51:24;16.00;;;7.57;;
31728;SDS011;18309;43.658;1.312;2024-02-14T09:53:50;13.18;;;7.05;;
31728;SDS011;18309;43.658;1.312;2024-02-14T09:56:19;12.75;;;6.80;;
31728;SDS011;18309;43.658;1.312;2024-02-14T09:58:47;19.10;;;6.50;;
31728;SDS011;18309;43.658;1.312;2024-02-14T10:01:20;16.25;;;6.03;;
31728;SDS011;18309;43.658;1.312;2024-02-14T10:03:49;11.82;;;6.20;;
31728;SDS011;18309;43.658;1.312;2024-02-14T10:06:18;13.55;;;6.10;;
31728;SDS011;18309;43.658;1.312;2024-02-14T10:08:46;12.45;;;6.28;;
31728;SDS011;18309;43.658;1.312;2024-02-14T10:11:12;16.80;;;6.38;;
31728;SDS011;18309;43.658;1.312;2024-02-14T10:13:39;16.95;;;7.45;;
31728;SDS011;18309;43.658;1.312;2024-02-14T10:16:06;13.45;;;6.43;;
31728;SDS011;18309;43.658;1.312;2024-02-14T10:18:36;27.23;;;7.38;;
31728;SDS011;18309;43.658;1.312;2024-02-14T10:21:02;16.85;;;7.40;;
31728;SDS011;18309;43.658;1.312;2024-02-14T10:23:29;13.35;;;7.47;;
31728;SDS011;18309;43.658;1.312;2024-02-14T10:25:55;16.45;;;7.50;;
31728;SDS011;18309;43.658;1.312;2024-02-14T10:28:22;18.83;;;6.95;;
31728;SDS011;18309;43.658;1.312;2024-02-14T10:30:48;12.93;;;6.85;;
31728;SDS011;18309;43.658;1.312;2024-02-14T10:33:17;19.75;;;7.45;;
31728;SDS011;18309;43.658;1.312;2024-02-14T10:35:44;14.73;;;6.57;;
31728;SDS011;18309;43.658;1.312;2024-02-14T10:38:10;13.70;;;6.72;;
31728;SDS011;18309;43.658;1.312;2024-02-14T10:40:36;14.38;;;6.15;;
31728;SDS011;18309;43.658;1.312;2024-02-14T10:43:07;10.65;;;5.35;;
31728;SDS011;18309;43.658;1.312;2024-02-14T10:45:37;18.67;;;5.25;;
31728;SDS011;18309;43.658;1.312;2024-02-14T10:48:04;21.20;;;6.85;;
31728;SDS011;18309;43.658;1.312;2024-02-14T10:50:34;10.10;;;4.97;;
31728;SDS011;18309;43.658;1.312;2024-02-14T10:53:03;11.57;;;5.30;;
31728;SDS011;18309;43.658;1.312;2024-02-14T10:55:31;12.43;;;4.70;;
31728;SDS011;18309;43.658;1.312;2024-02-14T10:57:58;10.13;;;4.50;;
31728;SDS011;18309;43.658;1.312;2024-02-14T11:00:25;9.20;;;4.30;;
31728;SDS011;18309;43.658;1.312;2024-02-14T11:02:51;13.65;;;4.05;;
31728;SDS011;18309;43.658;1.312;2024-02-14T11:05:18;16.63;;;4.43;;
31728;SDS011;18309;43.658;1.312;2024-02-14T11:07:49;12.55;;;4.68;;
31728;SDS011;18309;43.658;1.312;2024-02-14T11:10:18;10.30;;;4.63;;
31728;SDS011;18309;43.658;1.312;2024-02-14T11:12:46;15.32;;;4.97;;
31728;SDS011;18309;43.658;1.312;2024-02-14T11:15:17;14.20;;;4.30;;
31728;SDS011;18309;43.658;1.312;2024-02-14T11:17:47;9.05;;;4.07;;
31728;SDS011;18309;43.658;1.312;2024-02-14T11:20:20;12.15;;;4.28;;
31728;SDS011;18309;43.658;1.312;2024-02-14T11:23:02;10.48;;;4.40;;
31728;SDS011;18309;43.658;1.312;2024-02-14T11:25:32;15.23;;;4.60;;
31728;SDS011;18309;43.658;1.312;2024-02-14T11:28:24;14.00;;;4.07;;
31728;SDS011;18309;43.658;1.312;2024-02-14T11:30:51;13.30;;;4.00;;
31728;SDS011;18309;43.658;1.312;2024-02-14T11:35:49;9.57;;;3.70;;
31728;SDS011;18309;43.658;1.312;2024-02-14T11:38:19;15.45;;;4.50;;
31728;SDS011;18309;43.658;1.312;2024-02-14T11:40:45;11.77;;;4.20;;
31728;SDS011;18309;43.658;1.312;2024-02-14T11:43:12;10.38;;;3.30;;
31728;SDS011;18309;43.658;1.312;2024-02-14T11:45:38;6.63;;;3.53;;
31728;SDS011;18309;43.658;1.312;2024-02-14T11:48:07;14.20;;;4.65;;
31728;SDS011;18309;43.658;1.312;2024-02-14T11:50:34;12.18;;;3.75;;
31728;SDS011;18309;43.658;1.312;2024-02-14T11:53:00;11.98;;;5.00;;
31728;SDS011;18309;43.658;1.312;2024-02-14T11:55:29;22.83;;;6.40;;
31728;SDS011;18309;43.658;1.312;2024-02-14T11:57:57;10.90;;;3.67;;
31728;SDS011;18309;43.658;1.312;2024-02-14T12:00:23;14.23;;;3.35;;
31728;SDS011;18309;43.658;1.312;2024-02-14T12:02:49;7.65;;;2.90;;
31728;SDS011;18309;43.658;1.312;2024-02-14T12:05:17;12.43;;;3.72;;
31728;SDS011;18309;43.658;1.312;2024-02-14T12:07:44;13.23;;;3.30;;
31728;SDS011;18309;43.658;1.312;2024-02-14T12:10:10;9.75;;;4.60;;
31728;SDS011;18309;43.658;1.312;2024-02-14T12:12:37;13.18;;;3.63;;
31728;SDS011;18309;43.658;1.312;2024-02-14T12:15:03;14.35;;;3.90;;
31728;SDS011;18309;43.658;1.312;2024-02-14T12:17:31;8.07;;;3.17;;
31728;SDS011;18309;43.658;1.312;2024-02-14T12:20:09;15.23;;;3.63;;
31728;SDS011;18309;43.658;1.312;2024-02-14T12:22:39;11.13;;;3.47;;
31728;SDS011;18309;43.658;1.312;2024-02-14T12:25:06;19.40;;;4.20;;
31728;SDS011;18309;43.658;1.312;2024-02-14T12:27:33;17.20;;;4.15;;
31728;SDS011;18309;43.658;1.312;2024-02-14T12:29:59;22.65;;;5.28;;
31728;SDS011;18309;43.658;1.312;2024-02-14T12:32:28;20.02;;;4.22;;
31728;SDS011;18309;43.658;1.312;2024-02-14T12:34:55;15.75;;;3.83;;
31728;SDS011;18309;43.658;1.312;2024-02-14T12:37:22;8.38;;;2.75;;
31728;SDS011;18309;43.658;1.312;2024-02-14T12:39:48;14.73;;;2.70;;
31728;SDS011;18309;43.658;1.312;2024-02-14T12:42:14;17.90;;;3.20;;
31728;SDS011;18309;43.658;1.312;2024-02-14T12:44:40;9.63;;;1.95;;
31728;SDS011;18309;43.658;1.312;2024-02-14T12:47:06;14.35;;;2.00;;
31728;SDS011;18309;43.658;1.312;2024-02-14T12:49:33;6.35;;;2.10;;
31728;SDS011;18309;43.658;1.312;2024-02-14T12:51:59;5.72;;;1.60;;
31728;SDS011;18309;43.658;1.312;2024-02-14T12:54:25;4.78;;;2.30;;
31728;SDS011;18309;43.658;1.312;2024-02-14T12:56:51;9.35;;;2.20;;
31728;SDS011;18309;43.658;1.312;2024-02-14T12:59:17;9.75;;;1.83;;
31728;SDS011;18309;43.658;1.312;2024-02-14T13:01:44;11.05;;;2.08;;
31728;SDS011;18309;43.658;1.312;2024-02-14T13:04:11;6.57;;;1.65;;
31728;SDS011;18309;43.658;1.312;2024-02-14T13:06:37;6.85;;;1.50;;
31728;SDS011;18309;43.658;1.312;2024-02-14T13:09:03;5.35;;;1.75;;
31728;SDS011;18309;43.658;1.312;2024-02-14T13:11:31;9.68;;;1.55;;
31728;SDS011;18309;43.658;1.312;2024-02-14T13:13:57;7.20;;;2.88;;
31728;SDS011;18309;43.658;1.312;2024-02-14T13:16:23;8.15;;;2.63;;
31728;SDS011;18309;43.658;1.312;2024-02-14T13:18:49;7.15;;;2.13;;
31728;SDS011;18309;43.658;1.312;2024-02-14T13:21:15;6.63;;;1.77;;
31728;SDS011;18309;43.658;1.312;2024-02-14T13:23:41;10.10;;;2.47;;
31728;SDS011;18309;43.658;1.312;2024-02-14T13:26:08;3.67;;;1.67;;
31728;SDS011;18309;43.658;1.312;2024-02-14T13:28:33;5.80;;;1.92;;
31728;SDS011;18309;43.658;1.312;2024-02-14T13:31:00;8.30;;;1.75;;
31728;SDS011;18309;43.658;1.312;2024-02-14T13:33:26;5.15;;;1.77;;
31728;SDS011;18309;43.658;1.312;2024-02-14T13:35:51;3.75;;;1.38;;
31728;SDS011;18309;43.658;1.312;2024-02-14T13:38:17;2.45;;;0.95;;
31728;SDS011;18309;43.658;1.312;2024-02-14T13:40:43;18.42;;;1.55;;
31728;SDS011;18309;43.658;1.312;2024-02-14T13:43:09;6.75;;;1.70;;
31728;SDS011;18309;43.658;1.312;2024-02-14T13:45:40;4.68;;;1.23;;
31728;SDS011;18309;43.658;1.312;2024-02-14T13:48:10;4.75;;;2.45;;
31728;SDS011;18309;43.658;1.312;2024-02-14T13:50:36;7.60;;;1.92;;
31728;SDS011;18309;43.658;1.312;2024-02-14T13:53:03;5.25;;;1.30;;
31728;SDS011;18309;43.658;1.312;2024-02-14T13:55:29;5.75;;;1.50;;
31728;SDS011;18309;43.658;1.312;2024-02-14T13:57:54;3.67;;;1.05;;
31728;SDS011;18309;43.658;1.312;2024-02-14T14:00:20;4.63;;;1.40;;
31728;SDS011;18309;43.658;1.312;2024-02-14T14:02:46;6.25;;;1.60;;
31728;SDS011;18309;43.658;1.312;2024-02-14T14:05:11;4.40;;;1.40;;
31728;SDS011;18309;43.658;1.312;2024-02-14T14:07:38;5.93;;;1.65;;
31728;SDS011;18309;43.658;1.312;2024-02-14T14:10:05;5.82;;;1.73;;
31728;SDS011;18309;43.658;1.312;2024-02-14T14:12:31;6.68;;;1.45;;
31728;SDS011;18309;43.658;1.312;2024-02-14T14:14:57;5.18;;;1.42;;
31728;SDS011;18309;43.658;1.312;2024-02-14T14:17:23;3.47;;;1.17;;
31728;SDS011;18309;43.658;1.312;2024-02-14T14:19:49;4.80;;;1.50;;
31728;SDS011;18309;43.658;1.312;2024-02-14T14:22:15;3.25;;;1.40;;
31728;SDS011;18309;43.658;1.312;2024-02-14T14:24:41;6.22;;;2.58;;
31728;SDS011;18309;43.658;1.312;2024-02-14T14:27:07;7.18;;;1.45;;
31728;SDS011;18309;43.658;1.312;2024-02-14T14:29:42;9.40;;;2.42;;
31728;SDS011;18309;43.658;1.312;2024-02-14T14:32:09;4.07;;;1.30;;